Time;durP1;ratioP1;P1;durP2;ratioP2;P2;SDS_P1;SDS_P2;PMS_P1;PMS_P2;Temp;Humidity;BMP_temperature;BMP_pressure;BME280_temperature;BME280_humidity;BME280_pressure;Samples;Min_cycle;Max_cycle;Signal;HPM_P1;HPM_P2
2022/02/20 00:01:31;;;;;;;7.43;5.17;;;;;;;6.28;73.74;100032.03;4991797;28;20416;-66
2022/02/20 00:03:59;;;;;;;7.13;6.10;;;;;;;6.39;73.08;100033.06;4979667;28;20696;-69
2022/02/20 00:06:24;;;;;;;5.40;4.90;;;;;;;6.45;72.37;100023.66;4979885;28;20838;-67
2022/02/20 00:08:49;;;;;;;8.80;4.77;;;;;;;5.82;72.36;100041.56;4980075;28;20399;-68
2022/02/20 00:11:15;;;;;;;6.07;5.00;;;;;;;6.00;74.91;100036.75;4979518;28;20168;-67
2022/02/20 00:13:40;;;;;;;5.37;4.60;;;;;;;5.81;74.63;100032.09;4962470;28;20180;-67
2022/02/20 00:16:06;;;;;;;6.67;4.67;;;;;;;5.98;73.40;100022.03;4947139;28;20406;-67
2022/02/20 00:18:31;;;;;;;5.30;4.60;;;;;;;6.32;73.56;100031.22;4979421;28;20550;-67
2022/02/20 00:20:56;;;;;;;7.10;4.53;;;;;;;5.69;74.74;100028.41;4979473;28;20175;-67
2022/02/20 00:23:22;;;;;;;4.83;4.33;;;;;;;6.31;73.72;100026.03;4979609;28;20234;-67
2022/02/20 00:25:48;;;;;;;7.73;4.60;;;;;;;6.00;73.52;100021.22;4979398;28;20172;-66
2022/02/20 00:28:13;;;;;;;5.17;4.43;;;;;;;6.24;73.81;100022.47;4979395;28;20177;-66
2022/02/20 00:30:38;;;;;;;5.23;4.43;;;;;;;6.40;72.54;100018.41;4979715;28;20168;-67
2022/02/20 00:33:07;;;;;;;4.27;3.73;;;;;;;5.81;74.26;100026.91;4979364;28;20219;-66
2022/02/20 00:35:33;;;;;;;4.63;4.20;;;;;;;5.77;73.51;100033.75;4979089;28;20220;-67
2022/02/20 00:37:59;;;;;;;4.67;4.17;;;;;;;5.85;74.75;100031.28;4979841;28;20458;-67
2022/02/20 00:40:25;;;;;;;5.77;4.47;;;;;;;6.03;73.68;100029.03;4979364;28;20467;-66
2022/02/20 00:42:50;;;;;;;4.73;4.23;;;;;;;5.93;74.06;100034.88;4978968;28;20423;-68
2022/02/20 00:45:16;;;;;;;4.43;4.03;;;;;;;6.38;73.23;100028.72;4979770;28;20172;-68
2022/02/20 00:47:41;;;;;;;4.37;3.97;;;;;;;6.19;73.45;100034.47;4979072;28;20442;-68
2022/02/20 00:50:08;;;;;;;5.10;3.87;;;;;;;6.18;73.29;100040.50;4979209;28;20509;-68
2022/02/20 00:52:33;;;;;;;4.40;3.93;;;;;;;6.14;72.59;100033.53;4979880;28;20168;-69
2022/02/20 00:54:59;;;;;;;4.30;3.67;;;;;;;6.02;73.98;100029.91;4978912;28;20416;-69
2022/02/20 00:57:24;;;;;;;4.20;3.90;;;;;;;5.41;74.48;100034.78;4979065;28;20183;-68
2022/02/20 00:59:49;;;;;;;5.33;3.83;;;;;;;6.07;73.21;100023.09;4979354;28;20203;-68
2022/02/20 01:02:15;;;;;;;3.60;3.30;;;;;;;6.14;72.50;100036.97;4979018;28;20545;-67
2022/02/20 01:04:40;;;;;;;4.73;3.23;;;;;;;5.97;72.56;100030.66;4978959;28;20173;-67
2022/02/20 01:07:07;;;;;;;3.80;3.50;;;;;;;5.98;72.78;100033.28;4982606;28;20168;-68
2022/02/20 01:09:32;;;;;;;3.87;3.47;;;;;;;5.94;72.47;100028.88;4982790;28;20200;-68
2022/02/20 01:11:57;;;;;;;3.80;3.40;;;;;;;5.86;72.91;100027.88;4982601;28;20411;-67
2022/02/20 01:14:23;;;;;;;4.47;3.50;;;;;;;6.05;71.94;100024.75;4982953;28;20258;-67
2022/02/20 01:16:48;;;;;;;3.73;3.27;;;;;;;6.06;72.13;100031.69;4982760;28;20243;-67
2022/02/20 01:19:13;;;;;;;5.53;4.90;;;;;;;5.97;72.71;100034.09;4982537;28;20507;-67
2022/02/20 01:21:39;;;;;;;4.23;3.93;;;;;;;5.77;72.36;100030.28;4983233;28;20267;-67
2022/02/20 01:24:04;;;;;;;6.73;4.80;;;;;;;5.66;73.52;100036.13;4982141;28;20518;-67
2022/02/20 01:26:30;;;;;;;5.50;4.20;;;;;;;5.72;73.70;100038.84;4982137;28;20231;-67
2022/02/20 01:28:55;;;;;;;5.87;4.50;;;;;;;5.74;74.05;100044.03;4982643;28;20161;-67
2022/02/20 01:31:20;;;;;;;4.83;4.20;;;;;;;5.73;73.88;100047.47;4982422;28;20314;-67
2022/02/20 01:33:46;;;;;;;4.23;3.83;;;;;;;5.31;74.21;100057.00;4982426;28;20172;-67
2022/02/20 01:36:11;;;;;;;4.20;3.80;;;;;;;5.60;75.01;100046.34;4982784;28;20592;-67
2022/02/20 01:38:36;;;;;;;4.17;3.83;;;;;;;5.73;73.33;100043.16;4982335;28;20176;-66
2022/02/20 01:41:02;;;;;;;4.63;4.23;;;;;;;5.42;73.53;100053.78;4982561;28;20176;-67
2022/02/20 01:43:28;;;;;;;3.93;3.63;;;;;;;5.59;74.16;100054.09;4982394;28;20535;-66
2022/02/20 01:45:54;;;;;;;4.43;4.03;;;;;;;5.62;73.92;100057.59;4982111;28;20424;-66
2022/02/20 01:48:20;;;;;;;4.30;3.90;;;;;;;5.47;74.46;100053.03;4982003;28;20490;-67
2022/02/20 01:50:45;;;;;;;4.30;4.00;;;;;;;5.61;75.18;100066.19;4982297;28;20428;-67
2022/02/20 01:53:11;;;;;;;4.23;3.83;;;;;;;5.42;75.43;100061.53;4965154;28;20181;-67
2022/02/20 01:55:36;;;;;;;4.67;4.27;;;;;;;5.59;75.11;100054.97;4965172;28;20191;-67
2022/02/20 01:58:01;;;;;;;4.40;4.00;;;;;;;5.36;75.38;100057.13;4965535;28;20176;-68
2022/02/20 02:00:29;;;;;;;4.53;4.17;;;;;;;5.38;75.65;100055.41;4981756;28;20218;-67
2022/02/20 02:02:54;;;;;;;4.50;4.10;;;;;;;5.51;75.57;100056.53;4981756;28;20180;-67
2022/02/20 02:05:20;;;;;;;5.03;4.43;;;;;;;5.39;75.97;100052.84;4965506;28;20494;-68
2022/02/20 02:07:45;;;;;;;4.60;4.20;;;;;;;5.55;75.55;100063.50;4981571;28;20568;-66
2022/02/20 02:10:10;;;;;;;5.17;4.40;;;;;;;5.56;75.68;100060.94;4981616;28;20255;-67
2022/02/20 02:12:37;;;;;;;4.87;4.47;;;;;;;5.59;76.22;100064.41;4982376;28;20187;-69
2022/02/20 02:15:05;;;;;;;4.93;4.53;;;;;;;5.69;75.11;100056.88;4964570;28;20259;-67
2022/02/20 02:17:31;;;;;;;4.97;4.30;;;;;;;5.74;75.31;100060.41;4980211;28;20798;-70
2022/02/20 02:19:56;;;;;;;4.30;3.77;;;;;;;5.99;75.62;100063.47;4982112;28;20462;-67
2022/02/20 02:22:23;;;;;;;4.37;4.00;;;;;;;5.89;75.07;100064.13;4981790;28;20188;-67
2022/02/20 02:24:49;;;;;;;4.93;4.53;;;;;;;6.16;74.51;100056.00;4981296;28;20208;-67
2022/02/20 02:27:14;;;;;;;5.00;4.50;;;;;;;6.14;74.73;100055.09;4964881;28;20479;-67
2022/02/20 02:29:40;;;;;;;6.77;4.83;;;;;;;5.93;74.00;100055.56;4981223;28;20259;-66
2022/02/20 02:32:06;;;;;;;5.10;4.70;;;;;;;5.53;74.95;100065.19;4981519;28;20470;-67
2022/02/20 02:34:32;;;;;;;5.07;4.67;;;;;;;5.67;75.80;100058.56;4964462;28;20514;-66
2022/02/20 02:36:57;;;;;;;4.83;4.33;;;;;;;5.78;75.23;100063.94;4981285;28;20180;-66
2022/02/20 02:39:23;;;;;;;5.10;4.70;;;;;;;5.48;76.14;100066.81;4981119;28;20226;-68
2022/02/20 02:41:48;;;;;;;6.03;5.53;;;;;;;5.30;76.89;100063.00;4980920;28;20191;-67
2022/02/20 02:44:13;;;;;;;5.50;4.80;;;;;;;4.92;77.91;100063.09;4980940;28;20203;-66
2022/02/20 02:46:38;;;;;;;5.90;5.00;;;;;;;5.40;77.62;100066.69;4981395;28;20199;-67
2022/02/20 02:49:04;;;;;;;5.23;4.83;;;;;;;5.35;77.92;100076.91;4964152;28;20176;-67
2022/02/20 02:51:29;;;;;;;6.10;5.60;;;;;;;5.32;77.75;100081.16;4981330;28;20179;-66
2022/02/20 02:53:55;;;;;;;6.33;5.60;;;;;;;5.27;78.10;100085.34;4981208;28;20172;-66
2022/02/20 02:56:21;;;;;;;6.20;5.57;;;;;;;5.03;78.53;100095.22;4980774;28;20183;-66
2022/02/20 02:58:47;;;;;;;6.30;5.70;;;;;;;5.07;79.23;100103.88;4980693;28;20538;-66
2022/02/20 03:01:13;;;;;;;7.10;6.40;;;;;;;5.33;77.91;100104.44;4981381;28;20172;-67
2022/02/20 03:03:38;;;;;;;7.60;6.73;;;;;;;5.42;77.79;100110.66;4980464;28;20176;-66
2022/02/20 03:06:13;;;;;;;7.37;6.63;;;;;;;5.67;77.36;100118.03;4963808;28;20427;-67
2022/02/20 03:08:38;;;;;;;7.63;6.83;;;;;;;5.59;76.54;100110.97;4980561;28;20538;-67
2022/02/20 03:11:05;;;;;;;8.00;7.20;;;;;;;5.64;76.68;100114.53;4980491;28;20451;-66
2022/02/20 03:13:31;;;;;;;9.93;7.90;;;;;;;5.43;77.23;100114.97;4963953;28;20211;-66
2022/02/20 03:15:57;;;;;;;8.60;7.17;;;;;;;5.54;77.52;100119.50;4980274;28;20813;-67
2022/02/20 03:18:23;;;;;;;8.30;7.40;;;;;;;5.78;76.40;100117.38;4980449;28;20745;-66
2022/02/20 03:20:48;;;;;;;8.10;7.30;;;;;;;5.60;76.66;100128.22;4980626;28;20498;-66
2022/02/20 03:23:13;;;;;;;8.10;7.30;;;;;;;5.38;77.45;100133.81;4980308;28;20285;-66
2022/02/20 03:25:39;;;;;;;9.73;8.83;;;;;;;5.34;77.19;100134.59;4980169;28;20538;-66
2022/02/20 03:28:04;;;;;;;8.33;7.53;;;;;;;5.73;77.14;100150.91;4980353;28;20243;-66
2022/02/20 03:30:30;;;;;;;8.47;7.67;;;;;;;5.83;76.68;100146.78;4980063;28;20180;-66
2022/02/20 03:32:55;;;;;;;12.50;7.63;;;;;;;5.23;77.46;100154.19;4980003;28;20227;-66
2022/02/20 03:35:20;;;;;;;8.80;7.90;;;;;;;5.74;76.66;100160.41;4979987;28;20291;-66
2022/02/20 03:37:46;;;;;;;9.77;8.80;;;;;;;5.46;76.54;100164.16;4979985;28;20191;-67
2022/02/20 03:40:11;;;;;;;10.13;9.00;;;;;;;5.65;76.35;100173.16;4980365;28;20215;-68
2022/02/20 03:42:37;;;;;;;10.37;9.27;;;;;;;5.40;77.64;100183.84;4980159;28;20427;-67
2022/02/20 03:45:03;;;;;;;12.70;9.50;;;;;;;5.60;77.34;100196.31;4979845;28;20172;-68
2022/02/20 03:47:28;;;;;;;10.17;9.07;;;;;;;5.55;76.74;100187.63;4980531;28;20168;-68
2022/02/20 03:49:53;;;;;;;12.47;10.10;;;;;;;5.51;77.04;100188.41;4979913;28;20470;-66
2022/02/20 03:52:19;;;;;;;11.30;10.10;;;;;;;5.44;75.98;100202.00;4979701;28;20172;-67
2022/02/20 03:54:45;;;;;;;11.10;10.00;;;;;;;5.57;75.94;100204.91;4979885;28;20167;-68
2022/02/20 03:57:10;;;;;;;9.57;8.67;;;;;;;5.64;75.99;100211.09;4979593;28;20191;-66
2022/02/20 03:59:36;;;;;;;10.60;9.50;;;;;;;5.56;76.11;100220.38;4979456;28;20863;-66
2022/02/20 04:02:01;;;;;;;11.10;9.80;;;;;;;5.73;76.67;100218.16;4980060;28;20173;-67
2022/02/20 04:04:26;;;;;;;15.93;12.33;;;;;;;5.54;76.61;100222.06;4979601;28;20482;-67
2022/02/20 04:06:52;;;;;;;14.40;10.93;;;;;;;5.26;77.27;100231.78;4979458;28;20179;-66
2022/02/20 04:09:17;;;;;;;16.77;12.53;;;;;;;5.66;76.59;100226.63;4980129;28;20183;-66
2022/02/20 04:11:43;;;;;;;15.30;10.80;;;;;;;5.49;77.23;100234.00;4979659;28;20266;-67
2022/02/20 04:14:08;;;;;;;12.63;10.90;;;;;;;5.53;77.74;100231.53;4962666;28;20204;-66
2022/02/20 04:16:33;;;;;;;12.40;10.60;;;;;;;5.71;76.88;100232.75;4979897;28;20251;-66
2022/02/20 04:18:58;;;;;;;12.83;10.50;;;;;;;5.50;77.41;100239.22;4979429;28;20196;-66
2022/02/20 04:21:24;;;;;;;15.00;12.27;;;;;;;5.42;78.27;100250.25;4979418;28;20189;-66
2022/02/20 04:23:49;;;;;;;12.93;11.33;;;;;;;5.37;77.87;100251.00;4979653;28;20477;-66
2022/02/20 04:26:15;;;;;;;13.93;11.50;;;;;;;5.17;78.79;100263.47;4979329;28;20222;-67
2022/02/20 04:28:40;;;;;;;12.50;10.83;;;;;;;5.22;77.96;100271.31;4962543;28;20183;-67
2022/02/20 04:31:05;;;;;;;11.80;10.50;;;;;;;5.35;77.57;100275.06;4979595;28;20169;-69
2022/02/20 04:33:31;;;;;;;14.27;11.47;;;;;;;5.55;77.71;100275.53;4979221;28;20179;-67
2022/02/20 04:35:56;;;;;;;15.33;11.77;;;;;;;5.55;77.39;100276.38;4979438;28;20239;-67
2022/02/20 04:38:21;;;;;;;12.87;10.60;;;;;;;5.66;77.11;100274.03;4979693;28;20180;-66
2022/02/20 04:40:47;;;;;;;18.40;12.93;;;;;;;5.43;78.26;100277.84;4980342;28;20250;-66
2022/02/20 04:43:12;;;;;;;17.00;12.97;;;;;;;5.72;77.02;100271.59;4966627;28;20180;-67
2022/02/20 04:45:37;;;;;;;17.40;12.47;;;;;;;5.53;76.30;100266.84;4983750;28;20183;-67
2022/02/20 04:48:03;;;;;;;15.80;11.73;;;;;;;5.81;76.46;100262.28;4983231;28;20253;-67
2022/02/20 04:50:28;;;;;;;13.00;11.33;;;;;;;5.63;76.54;100271.41;4983375;28;20266;-67
2022/02/20 04:52:53;;;;;;;14.97;12.43;;;;;;;5.69;76.29;100266.34;4983095;28;20179;-68
2022/02/20 04:55:19;;;;;;;14.30;11.90;;;;;;;5.82;76.37;100269.19;4983049;28;20180;-67
2022/02/20 04:57:44;;;;;;;15.23;11.17;;;;;;;5.31;77.03;100265.50;4983094;28;20183;-67
2022/02/20 05:00:11;;;;;;;15.53;11.93;;;;;;;5.94;75.73;100266.88;4983406;28;20247;-66
2022/02/20 05:02:36;;;;;;;14.07;11.67;;;;;;;5.19;77.11;100271.25;4966276;28;20485;-67
2022/02/20 05:05:01;;;;;;;13.93;11.37;;;;;;;5.09;78.70;100284.75;4966066;28;20427;-67
2022/02/20 05:07:26;;;;;;;14.27;12.30;;;;;;;5.20;78.92;100284.19;4966433;28;20176;-70
2022/02/20 05:09:52;;;;;;;16.63;12.47;;;;;;;5.50;77.94;100271.97;4982702;28;20462;-67
2022/02/20 05:12:17;;;;;;;13.67;11.17;;;;;;;5.18;77.91;100272.97;4982893;28;20195;-66
2022/02/20 05:14:42;;;;;;;12.80;11.17;;;;;;;5.32;78.29;100265.53;4982997;28;20172;-67
2022/02/20 05:17:09;;;;;;;12.27;10.93;;;;;;;5.09;78.38;100262.41;4982586;28;20565;-68
2022/02/20 05:19:35;;;;;;;12.10;10.20;;;;;;;5.21;78.55;100254.06;4982659;28;20255;-66
2022/02/20 05:22:00;;;;;;;11.20;9.70;;;;;;;5.37;78.50;100248.41;4983074;28;20415;-67
2022/02/20 05:24:25;;;;;;;12.57;9.50;;;;;;;4.98;78.41;100264.72;4982502;28;20196;-67
2022/02/20 05:26:50;;;;;;;10.93;9.83;;;;;;;5.49;77.59;100249.53;4982409;28;20191;-67
2022/02/20 05:29:16;;;;;;;11.20;9.67;;;;;;;5.17;78.54;100257.44;4982943;28;20200;-67
2022/02/20 05:31:41;;;;;;;13.33;9.50;;;;;;;5.29;78.52;100257.72;4982551;28;20191;-67
2022/02/20 05:34:06;;;;;;;11.30;9.67;;;;;;;5.81;76.85;100250.22;4982208;28;20300;-67
2022/02/20 05:36:32;;;;;;;12.43;9.67;;;;;;;5.30;77.89;100258.56;4982793;28;20602;-67
2022/02/20 05:38:57;;;;;;;10.57;8.73;;;;;;;5.38;77.60;100252.72;4982426;28;20287;-66
2022/02/20 05:41:23;;;;;;;10.90;8.40;;;;;;;5.32;77.65;100246.56;4982492;28;20183;-67
2022/02/20 05:43:48;;;;;;;10.17;9.07;;;;;;;5.64;77.40;100249.88;4982322;28;20219;-68
2022/02/20 05:46:13;;;;;;;9.80;8.80;;;;;;;5.72;76.89;100266.44;4982126;28;20219;-68
2022/02/20 05:48:39;;;;;;;12.23;9.43;;;;;;;5.78;76.09;100260.50;4981937;28;20172;-66
2022/02/20 05:51:04;;;;;;;10.80;8.90;;;;;;;5.65;76.79;100255.91;4982157;28;20176;-66
2022/02/20 05:53:29;;;;;;;12.03;10.47;;;;;;;5.78;77.37;100251.88;4981854;28;20227;-67
2022/02/20 05:55:55;;;;;;;13.23;10.43;;;;;;;5.66;76.62;100249.91;4982191;28;20239;-66
2022/02/20 05:58:20;;;;;;;12.33;9.63;;;;;;;5.82;76.46;100248.50;4982217;28;20164;-66
2022/02/20 06:00:45;;;;;;;12.27;10.50;;;;;;;5.68;77.13;100245.63;4981907;28;20246;-65
2022/02/20 06:03:11;;;;;;;13.70;10.07;;;;;;;5.56;77.59;100246.22;4981683;28;20179;-66
2022/02/20 06:05:36;;;;;;;14.60;11.47;;;;;;;5.69;77.30;100253.41;4982320;28;20249;-66
2022/02/20 06:08:01;;;;;;;13.57;11.10;;;;;;;5.27;78.04;100254.19;4981676;28;20180;-67
2022/02/20 06:10:27;;;;;;;14.37;11.60;;;;;;;5.30;78.28;100243.94;4981727;28;20185;-67
2022/02/20 06:12:53;;;;;;;12.63;10.70;;;;;;;5.37;78.60;100247.53;4981979;28;20172;-67
2022/02/20 06:15:18;;;;;;;13.97;11.13;;;;;;;5.58;77.59;100249.72;4981629;28;20168;-66
2022/02/20 06:17:44;;;;;;;14.20;11.77;;;;;;;5.50;77.87;100246.09;4981664;28;20273;-67
2022/02/20 06:20:09;;;;;;;14.23;11.80;;;;;;;5.45;77.37;100247.72;4981794;28;20204;-66
2022/02/20 06:22:35;;;;;;;14.80;11.07;;;;;;;5.62;78.19;100246.38;4981534;28;20186;-66
2022/02/20 06:25:00;;;;;;;14.90;11.93;;;;;;;5.57;77.78;100247.97;4981414;28;20191;-68
2022/02/20 06:27:25;;;;;;;14.90;12.10;;;;;;;5.31;78.22;100262.91;4981801;28;20168;-66
2022/02/20 06:29:51;;;;;;;14.40;11.30;;;;;;;5.64;77.91;100254.16;4981334;28;20259;-66
2022/02/20 06:32:16;;;;;;;13.60;11.60;;;;;;;5.03;78.73;100254.50;4981222;28;20550;-66
2022/02/20 06:34:41;;;;;;;16.70;12.57;;;;;;;5.54;77.87;100251.38;4981422;28;20327;-66
2022/02/20 06:37:07;;;;;;;14.30;10.60;;;;;;;5.45;77.23;100255.47;4981549;28;20203;-66
2022/02/20 06:39:32;;;;;;;16.60;10.90;;;;;;;5.27;78.28;100251.63;4981314;28;20287;-67
2022/02/20 06:41:57;;;;;;;15.03;11.07;;;;;;;5.25;78.29;100255.00;4981166;28;20168;-66
2022/02/20 06:44:23;;;;;;;18.30;12.77;;;;;;;5.43;77.64;100244.22;4980945;28;20431;-66
2022/02/20 06:46:48;;;;;;;15.20;10.40;;;;;;;5.48;77.10;100245.19;4981530;28;20175;-66
2022/02/20 06:49:13;;;;;;;14.27;10.77;;;;;;;5.42;77.03;100243.34;4980866;28;20259;-66
2022/02/20 06:51:39;;;;;;;11.90;9.97;;;;;;;5.46;77.09;100239.13;4980803;28;20179;-67
2022/02/20 06:54:04;;;;;;;12.30;9.90;;;;;;;5.30;76.80;100238.75;4981022;28;20420;-67
2022/02/20 06:56:30;;;;;;;10.23;8.53;;;;;;;5.15;77.61;100238.41;4980603;28;20183;-66
2022/02/20 06:58:55;;;;;;;11.60;9.03;;;;;;;5.39;76.79;100228.63;4963730;28;20294;-66
2022/02/20 07:01:21;;;;;;;10.10;7.90;;;;;;;5.26;77.17;100230.91;4981020;28;20422;-67
2022/02/20 07:03:46;;;;;;;8.70;7.07;;;;;;;4.83;77.51;100241.09;4980298;28;20176;-67
2022/02/20 07:06:11;;;;;;;9.27;7.73;;;;;;;5.39;76.73;100248.44;4980506;28;20164;-66
2022/02/20 07:08:37;;;;;;;8.37;7.33;;;;;;;5.67;75.41;100244.75;4963825;28;20184;-67
2022/02/20 07:11:02;;;;;;;10.13;7.63;;;;;;;5.46;75.99;100242.56;4980597;28;20176;-67
2022/02/20 07:13:28;;;;;;;8.87;6.87;;;;;;;5.66;76.04;100239.56;4980410;28;20172;-66
2022/02/20 07:15:53;;;;;;;7.60;6.60;;;;;;;5.64;75.06;100244.72;4981201;28;20256;-66
2022/02/20 07:18:18;;;;;;;8.77;6.50;;;;;;;5.72;75.06;100248.34;4980203;28;20219;-67
2022/02/20 07:20:44;;;;;;;8.87;7.03;;;;;;;5.63;75.02;100242.97;4979975;28;20208;-67
2022/02/20 07:23:11;;;;;;;8.33;7.23;;;;;;;5.50;75.52;100230.59;4980269;28;20188;-67
2022/02/20 07:25:37;;;;;;;7.90;6.80;;;;;;;5.46;74.64;100239.97;4980084;28;20207;-67
2022/02/20 07:28:02;;;;;;;6.90;6.10;;;;;;;5.38;75.36;100232.03;4963368;28;20416;-66
2022/02/20 07:30:28;;;;;;;8.73;6.87;;;;;;;5.59;74.47;100225.63;4980562;28;20188;-68
2022/02/20 07:33:00;;;;;;;7.00;6.30;;;;;;;5.57;74.81;100232.47;4979916;28;20222;-67
2022/02/20 07:35:25;;;;;;;8.30;7.10;;;;;;;5.70;73.89;100212.94;4963227;28;20491;-66
2022/02/20 07:37:51;;;;;;;8.77;7.43;;;;;;;5.87;73.66;100224.50;4980655;28;20400;-66
2022/02/20 07:40:16;;;;;;;10.00;6.60;;;;;;;5.67;74.37;100233.53;4980146;28;20297;-68
2022/02/20 07:42:42;;;;;;;8.40;6.97;;;;;;;5.55;74.68;100227.25;4963201;28;20176;-67
2022/02/20 07:45:08;;;;;;;11.30;7.90;;;;;;;5.51;74.26;100232.34;4980446;28;20187;-67
2022/02/20 07:47:46;;;;;;;8.07;7.27;;;;;;;5.42;74.02;100230.41;4979908;28;20535;-67
2022/02/20 07:50:11;;;;;;;9.07;7.30;;;;;;;5.16;75.34;100237.59;4979864;28;20180;-67
2022/02/20 07:52:36;;;;;;;10.10;8.13;;;;;;;5.16;75.21;100224.66;4979715;28;20419;-67
2022/02/20 07:55:02;;;;;;;9.50;8.50;;;;;;;5.33;73.83;100220.75;4979506;28;20420;-67
2022/02/20 07:57:27;;;;;;;11.87;8.57;;;;;;;5.70;74.04;100226.72;4980151;28;20168;-68
2022/02/20 07:59:52;;;;;;;12.47;9.70;;;;;;;5.70;73.71;100225.84;4979691;28;20266;-68
2022/02/20 08:02:18;;;;;;;10.60;9.07;;;;;;;5.30;74.14;100212.91;4962959;28;20176;-67
2022/02/20 08:04:43;;;;;;;8.87;7.97;;;;;;;4.89;74.63;100216.28;4980034;28;20205;-68
2022/02/20 08:07:08;;;;;;;10.73;8.53;;;;;;;5.46;74.05;100208.09;4979774;28;20258;-68
2022/02/20 08:09:34;;;;;;;10.00;7.87;;;;;;;5.42;73.17;100214.03;4979725;28;20183;-67
2022/02/20 08:11:59;;;;;;;9.57;7.90;;;;;;;5.71;72.54;100204.31;4980095;28;20277;-66
2022/02/20 08:14:24;;;;;;;8.07;7.27;;;;;;;5.83;72.19;100214.94;4979450;28;20199;-66
2022/02/20 08:16:49;;;;;;;7.20;6.60;;;;;;;5.51;72.55;100215.09;4979699;28;20542;-67
2022/02/20 08:19:15;;;;;;;7.73;6.87;;;;;;;5.36;72.74;100202.72;4980235;28;20279;-66
2022/02/20 08:21:40;;;;;;;7.70;6.90;;;;;;;5.54;72.10;100201.38;4979911;28;20247;-66
2022/02/20 08:24:06;;;;;;;8.23;7.30;;;;;;;5.85;71.96;100186.50;4979642;28;20192;-66
2022/02/20 08:26:31;;;;;;;8.23;7.13;;;;;;;5.60;71.97;100185.13;4980332;28;20175;-67
2022/02/20 08:28:56;;;;;;;7.70;6.90;;;;;;;5.33;71.89;100194.03;4979499;28;20224;-66
2022/02/20 08:31:21;;;;;;;8.73;7.37;;;;;;;5.47;73.34;100181.41;4962649;28;20532;-66
2022/02/20 08:33:47;;;;;;;8.83;7.50;;;;;;;5.47;73.06;100171.06;4979900;28;20262;-68
2022/02/20 08:36:13;;;;;;;10.23;8.53;;;;;;;5.61;71.57;100169.63;4979432;28;20224;-66
2022/02/20 08:38:40;;;;;;;8.10;6.80;;;;;;;5.10;72.64;100159.91;4979558;28;20172;-67
2022/02/20 08:41:05;;;;;;;7.83;6.97;;;;;;;4.91;73.49;100156.91;4979896;28;20739;-67
2022/02/20 08:43:30;;;;;;;8.43;7.40;;;;;;;5.11;73.78;100149.63;4979404;28;20460;-67
2022/02/20 08:45:56;;;;;;;9.90;8.53;;;;;;;5.17;73.60;100143.72;4979414;28;20304;-67
2022/02/20 08:48:21;;;;;;;7.37;6.67;;;;;;;5.47;73.02;100143.50;4979604;28;20434;-67
2022/02/20 08:50:47;;;;;;;8.17;7.00;;;;;;;5.03;74.86;100138.25;4962410;28;20519;-67
2022/02/20 08:53:12;;;;;;;8.20;7.30;;;;;;;5.11;74.84;100128.94;4979369;28;20186;-66
2022/02/20 08:55:38;;;;;;;8.70;7.53;;;;;;;5.52;73.59;100113.44;4979333;28;20534;-67
2022/02/20 08:58:04;;;;;;;7.60;6.70;;;;;;;5.36;74.07;100114.84;4979120;28;20438;-65
2022/02/20 09:00:29;;;;;;;7.80;7.00;;;;;;;5.28;75.29;100108.66;4983025;28;20231;-66
2022/02/20 09:02:55;;;;;;;7.80;7.00;;;;;;;5.38;74.46;100102.81;4985596;28;20423;-67
2022/02/20 09:05:20;;;;;;;8.17;6.93;;;;;;;5.16;74.84;100092.88;4995073;28;20191;-67
2022/02/20 09:07:45;;;;;;;7.80;6.73;;;;;;;5.42;74.88;100079.63;4998839;28;20179;-67
2022/02/20 09:10:11;;;;;;;7.87;6.97;;;;;;;5.03;75.40;100079.72;4980197;28;20492;-68
2022/02/20 09:12:36;;;;;;;7.80;7.00;;;;;;;5.36;74.58;100068.31;4979253;28;20589;-63
2022/02/20 09:15:04;;;;;;;7.40;6.57;;;;;;;5.28;74.86;100058.69;4979316;28;20177;-68
2022/02/20 09:17:29;;;;;;;8.07;7.27;;;;;;;5.28;75.68;100049.19;4989711;28;20210;-68
2022/02/20 09:19:54;;;;;;;7.67;6.80;;;;;;;5.44;74.94;100041.75;4981458;28;20466;-67
2022/02/20 09:22:20;;;;;;;7.83;7.03;;;;;;;5.15;75.46;100040.31;4981477;28;20180;-68
2022/02/20 09:24:45;;;;;;;7.13;6.43;;;;;;;5.64;75.62;100019.72;4999954;28;20316;-68
2022/02/20 09:27:10;;;;;;;9.77;8.60;;;;;;;5.66;74.73;100010.28;5001121;28;20186;-69
2022/02/20 09:29:36;;;;;;;7.30;6.50;;;;;;;5.12;76.02;100011.84;5002438;28;20179;-67
2022/02/20 09:32:02;;;;;;;7.67;6.87;;;;;;;5.22;75.48;100010.31;5002688;28;20174;-67
2022/02/20 09:34:28;;;;;;;7.90;6.50;;;;;;;4.96;76.79;99996.88;4996684;28;20238;-66
2022/02/20 09:36:53;;;;;;;7.73;6.60;;;;;;;5.41;76.64;99980.50;5002263;28;20393;-67
2022/02/20 09:39:19;;;;;;;8.07;6.70;;;;;;;5.45;76.69;99963.34;5002410;28;20454;-67
2022/02/20 09:41:44;;;;;;;8.70;6.00;;;;;;;4.85;76.45;99971.69;5001730;28;20451;-67
2022/02/20 09:44:10;;;;;;;8.13;6.83;;;;;;;5.20;77.36;99958.59;5001575;28;20445;-68
2022/02/20 09:46:36;;;;;;;8.20;6.20;;;;;;;5.59;76.97;99943.78;5002062;28;20218;-68
2022/02/20 09:49:02;;;;;;;7.57;6.77;;;;;;;5.72;76.46;99948.31;4984691;28;20170;-65
2022/02/20 09:51:29;;;;;;;7.60;6.33;;;;;;;5.21;76.08;99944.00;5001641;28;20419;-67
2022/02/20 09:53:56;;;;;;;7.10;6.40;;;;;;;4.86;76.28;99939.88;4984912;28;20195;-68
2022/02/20 09:56:22;;;;;;;7.30;6.60;;;;;;;5.06;77.85;99937.69;5001516;28;20674;-67
2022/02/20 09:58:47;;;;;;;8.60;6.90;;;;;;;5.43;77.18;99915.94;5001274;28;20426;-71
2022/02/20 10:01:14;;;;;;;7.67;6.83;;;;;;;5.00;78.39;99919.47;5001880;28;20245;-67
2022/02/20 10:03:43;;;;;;;8.73;6.80;;;;;;;4.72;78.70;99913.78;5001723;28;20524;-65
2022/02/20 10:06:15;;;;;;;7.77;6.70;;;;;;;4.89;78.58;99901.19;5001883;28;20419;-63
2022/02/20 10:08:43;;;;;;;7.57;6.80;;;;;;;5.22;77.26;99894.03;4984585;28;20659;-64
2022/02/20 10:11:16;;;;;;;7.10;6.40;;;;;;;4.42;78.44;99902.81;4984320;28;20423;-68
2022/02/20 10:13:42;;;;;;;6.87;5.80;;;;;;;4.44;79.95;99907.19;5001065;28;20418;-66
2022/02/20 10:16:21;;;;;;;6.73;5.90;;;;;;;4.49;79.82;99890.09;5001003;28;20431;-67
2022/02/20 10:18:47;;;;;;;8.00;5.60;;;;;;;5.11;79.17;99880.06;5000945;28;20217;-67
2022/02/20 10:21:19;;;;;;;6.77;6.00;;;;;;;4.78;79.19;99876.03;5000990;28;20433;-68
2022/02/20 10:23:44;;;;;;;7.13;5.70;;;;;;;4.75;79.37;99861.34;5001188;28;20462;-68
2022/02/20 10:26:12;;;;;;;5.80;5.20;;;;;;;4.81;78.77;99851.09;5000903;28;20447;-69
2022/02/20 10:28:57;;;;;;;5.77;5.17;;;;;;;4.58;79.84;99852.38;5000639;28;20275;-67
2022/02/20 10:31:45;;;;;;;6.57;5.93;;;;;;;4.69;78.38;99835.38;4983868;28;20497;-67
2022/02/20 10:34:16;;;;;;;5.57;4.90;;;;;;;4.92;78.69;99843.56;4983677;28;20637;-67
2022/02/20 10:36:53;;;;;;;5.80;5.30;;;;;;;4.69;78.68;99830.22;5000673;28;20473;-67
2022/02/20 10:39:36;;;;;;;6.67;5.30;;;;;;;4.47;79.74;99834.13;4982788;28;20457;-66
2022/02/20 10:42:16;;;;;;;5.70;4.90;;;;;;;4.07;79.70;99816.09;5000646;28;20489;-67
2022/02/20 10:44:52;;;;;;;6.03;5.43;;;;;;;5.07;78.81;99804.19;5000418;28;20442;-68
2022/02/20 10:47:19;;;;;;;5.23;4.73;;;;;;;4.93;78.79;99793.66;5000639;28;20396;-67
2022/02/20 10:49:44;;;;;;;5.40;4.90;;;;;;;4.84;79.07;99767.66;5000715;28;20683;-69
2022/02/20 10:52:23;;;;;;;5.70;4.63;;;;;;;4.78;80.86;99767.56;5000638;28;20506;-69
2022/02/20 10:55:05;;;;;;;6.10;5.50;;;;;;;4.51;80.25;99768.81;5000426;28;20600;-71
2022/02/20 10:57:38;;;;;;;5.80;5.30;;;;;;;4.84;80.46;99759.91;4983339;28;20423;-69
2022/02/20 11:00:14;;;;;;;5.57;5.03;;;;;;;4.98;79.66;99758.44;5000223;28;20469;-69
2022/02/20 11:02:41;;;;;;;6.43;5.50;;;;;;;4.49;80.60;99755.00;5000297;28;20516;-69
2022/02/20 11:05:08;;;;;;;6.93;5.90;;;;;;;4.86;80.63;99743.59;5000095;28;20425;-70
2022/02/20 11:07:39;;;;;;;9.33;6.00;;;;;;;5.02;80.57;99746.41;4998819;28;20461;-69
2022/02/20 11:10:06;;;;;;;6.13;5.60;;;;;;;5.18;79.29;99735.50;4980526;28;20677;-67
2022/02/20 11:12:32;;;;;;;6.00;5.40;;;;;;;4.97;80.37;99730.00;4981082;28;20407;-66
2022/02/20 11:14:57;;;;;;;6.27;5.67;;;;;;;5.01;81.62;99705.97;4979759;28;20526;-66
2022/02/20 11:17:23;;;;;;;7.17;6.50;;;;;;;5.19;80.87;99711.38;4979841;28;20416;-67
2022/02/20 11:19:52;;;;;;;6.07;5.47;;;;;;;5.82;80.37;99695.88;4979905;28;20196;-69
2022/02/20 11:22:18;;;;;;;7.67;6.23;;;;;;;5.56;80.19;99693.81;4963677;28;20491;-65
2022/02/20 11:24:45;;;;;;;6.77;6.10;;;;;;;5.87;80.07;99672.63;4979549;28;20522;-69